sensor_id;sensor_type;location;lat;lon;timestamp;P1;durP1;ratioP1;P2;durP2;ratioP2
3085;SDS011;52812;48.960;9.108;2022-12-07T00:01:36;15.90;;;9.77;;
3085;SDS011;52812;48.960;9.108;2022-12-07T00:04:06;14.30;;;9.40;;
3085;SDS011;52812;48.960;9.108;2022-12-07T00:06:33;15.30;;;9.63;;
3085;SDS011;52812;48.960;9.108;2022-12-07T00:09:01;15.43;;;9.87;;
3085;SDS011;52812;48.960;9.108;2022-12-07T00:11:28;13.83;;;9.60;;
3085;SDS011;52812;48.960;9.108;2022-12-07T00:13:56;14.63;;;9.97;;
3085;SDS011;52812;48.960;9.108;2022-12-07T00:16:24;14.43;;;9.47;;
3085;SDS011;52812;48.960;9.108;2022-12-07T00:18:51;15.80;;;9.90;;
3085;SDS011;52812;48.960;9.108;2022-12-07T00:21:18;14.57;;;9.40;;
3085;SDS011;52812;48.960;9.108;2022-12-07T00:23:46;16.37;;;9.50;;
3085;SDS011;52812;48.960;9.108;2022-12-07T00:26:14;12.60;;;9.43;;
3085;SDS011;52812;48.960;9.108;2022-12-07T00:28:44;15.30;;;9.80;;
3085;SDS011;52812;48.960;9.108;2022-12-07T00:31:14;13.20;;;8.70;;
3085;SDS011;52812;48.960;9.108;2022-12-07T00:33:41;14.00;;;9.00;;
3085;SDS011;52812;48.960;9.108;2022-12-07T00:36:14;13.30;;;9.40;;
3085;SDS011;52812;48.960;9.108;2022-12-07T00:38:43;14.20;;;9.77;;
3085;SDS011;52812;48.960;9.108;2022-12-07T00:43:39;13.53;;;9.43;;
3085;SDS011;52812;48.960;9.108;2022-12-07T00:46:06;16.13;;;10.10;;
3085;SDS011;52812;48.960;9.108;2022-12-07T00:48:31;13.73;;;9.60;;
3085;SDS011;52812;48.960;9.108;2022-12-07T00:50:57;13.53;;;8.87;;
3085;SDS011;52812;48.960;9.108;2022-12-07T00:53:23;15.53;;;9.87;;
3085;SDS011;52812;48.960;9.108;2022-12-07T00:55:49;14.17;;;9.40;;
3085;SDS011;52812;48.960;9.108;2022-12-07T00:58:15;14.60;;;9.70;;
3085;SDS011;52812;48.960;9.108;2022-12-07T01:00:41;13.70;;;9.10;;
3085;SDS011;52812;48.960;9.108;2022-12-07T01:03:08;15.20;;;9.30;;
3085;SDS011;52812;48.960;9.108;2022-12-07T01:05:35;13.80;;;9.23;;
3085;SDS011;52812;48.960;9.108;2022-12-07T01:08:01;14.17;;;9.47;;
3085;SDS011;52812;48.960;9.108;2022-12-07T01:10:27;13.77;;;8.97;;
3085;SDS011;52812;48.960;9.108;2022-12-07T01:12:55;14.00;;;8.67;;
3085;SDS011;52812;48.960;9.108;2022-12-07T01:15:20;13.57;;;8.47;;
3085;SDS011;52812;48.960;9.108;2022-12-07T01:17:46;17.27;;;9.80;;
3085;SDS011;52812;48.960;9.108;2022-12-07T01:20:12;12.80;;;9.10;;
3085;SDS011;52812;48.960;9.108;2022-12-07T01:22:38;15.30;;;9.57;;
3085;SDS011;52812;48.960;9.108;2022-12-07T01:25:05;15.30;;;9.60;;
3085;SDS011;52812;48.960;9.108;2022-12-07T01:27:32;14.00;;;9.07;;
3085;SDS011;52812;48.960;9.108;2022-12-07T01:29:58;15.80;;;9.00;;
3085;SDS011;52812;48.960;9.108;2022-12-07T01:32:24;13.73;;;9.40;;
3085;SDS011;52812;48.960;9.108;2022-12-07T01:34:49;13.90;;;9.37;;
3085;SDS011;52812;48.960;9.108;2022-12-07T01:37:15;14.13;;;8.87;;
3085;SDS011;52812;48.960;9.108;2022-12-07T01:39:41;14.20;;;8.70;;
3085;SDS011;52812;48.960;9.108;2022-12-07T01:42:10;16.37;;;9.60;;
3085;SDS011;52812;48.960;9.108;2022-12-07T01:47:53;11.70;;;8.37;;
3085;SDS011;52812;48.960;9.108;2022-12-07T01:50:21;12.67;;;9.00;;
3085;SDS011;52812;48.960;9.108;2022-12-07T01:52:51;15.20;;;9.20;;
3085;SDS011;52812;48.960;9.108;2022-12-07T01:55:21;15.17;;;9.43;;
3085;SDS011;52812;48.960;9.108;2022-12-07T01:57:48;15.10;;;9.80;;
3085;SDS011;52812;48.960;9.108;2022-12-07T02:00:17;14.60;;;9.50;;
3085;SDS011;52812;48.960;9.108;2022-12-07T02:02:44;16.53;;;10.00;;
3085;SDS011;52812;48.960;9.108;2022-12-07T02:05:15;13.80;;;8.63;;
3085;SDS011;52812;48.960;9.108;2022-12-07T02:07:42;12.07;;;8.37;;
3085;SDS011;52812;48.960;9.108;2022-12-07T02:10:20;12.67;;;8.50;;
3085;SDS011;52812;48.960;9.108;2022-12-07T02:13:39;12.23;;;8.30;;
3085;SDS011;52812;48.960;9.108;2022-12-07T02:15:44;15.40;;;9.47;;
3085;SDS011;52812;48.960;9.108;2022-12-07T02:18:47;16.90;;;9.33;;
3085;SDS011;52812;48.960;9.108;2022-12-07T02:29:23;14.43;;;9.53;;
3085;SDS011;52812;48.960;9.108;2022-12-07T02:32:12;14.30;;;9.17;;
3085;SDS011;52812;48.960;9.108;2022-12-07T02:34:56;12.00;;;8.43;;
3085;SDS011;52812;48.960;9.108;2022-12-07T02:37:34;13.57;;;8.90;;
3085;SDS011;52812;48.960;9.108;2022-12-07T02:43:00;14.80;;;9.43;;
3085;SDS011;52812;48.960;9.108;2022-12-07T02:45:31;14.53;;;9.67;;
3085;SDS011;52812;48.960;9.108;2022-12-07T02:47:59;16.73;;;9.47;;
3085;SDS011;52812;48.960;9.108;2022-12-07T02:50:26;18.17;;;10.70;;
3085;SDS011;52812;48.960;9.108;2022-12-07T02:52:53;15.70;;;9.50;;
3085;SDS011;52812;48.960;9.108;2022-12-07T02:55:19;14.93;;;9.23;;
3085;SDS011;52812;48.960;9.108;2022-12-07T03:00:31;15.20;;;10.27;;
3085;SDS011;52812;48.960;9.108;2022-12-07T03:03:09;16.13;;;10.23;;
3085;SDS011;52812;48.960;9.108;2022-12-07T03:05:41;15.70;;;10.83;;
3085;SDS011;52812;48.960;9.108;2022-12-07T03:08:13;17.43;;;10.33;;
3085;SDS011;52812;48.960;9.108;2022-12-07T03:13:45;16.83;;;10.13;;
3085;SDS011;52812;48.960;9.108;2022-12-07T03:16:31;15.50;;;9.67;;
3085;SDS011;52812;48.960;9.108;2022-12-07T03:19:06;17.90;;;10.00;;
3085;SDS011;52812;48.960;9.108;2022-12-07T03:21:43;14.90;;;10.10;;
3085;SDS011;52812;48.960;9.108;2022-12-07T03:24:17;16.30;;;9.93;;
3085;SDS011;52812;48.960;9.108;2022-12-07T03:26:51;16.80;;;9.40;;
3085;SDS011;52812;48.960;9.108;2022-12-07T03:29:33;15.73;;;9.57;;
3085;SDS011;52812;48.960;9.108;2022-12-07T03:32:11;14.40;;;9.40;;
3085;SDS011;52812;48.960;9.108;2022-12-07T03:35:03;17.47;;;10.23;;
3085;SDS011;52812;48.960;9.108;2022-12-07T03:37:33;19.47;;;10.33;;
3085;SDS011;52812;48.960;9.108;2022-12-07T03:43:05;15.87;;;9.80;;
3085;SDS011;52812;48.960;9.108;2022-12-07T03:45:33;14.30;;;9.13;;
3085;SDS011;52812;48.960;9.108;2022-12-07T03:48:08;13.73;;;9.07;;
3085;SDS011;52812;48.960;9.108;2022-12-07T03:53:20;16.03;;;9.47;;
3085;SDS011;52812;48.960;9.108;2022-12-07T03:55:56;16.97;;;8.87;;
3085;SDS011;52812;48.960;9.108;2022-12-07T03:58:23;20.87;;;8.93;;
3085;SDS011;52812;48.960;9.108;2022-12-07T04:00:50;14.20;;;9.00;;
3085;SDS011;52812;48.960;9.108;2022-12-07T04:03:16;14.10;;;8.70;;
3085;SDS011;52812;48.960;9.108;2022-12-07T04:05:42;15.33;;;9.40;;
3085;SDS011;52812;48.960;9.108;2022-12-07T04:08:08;17.17;;;9.33;;
3085;SDS011;52812;48.960;9.108;2022-12-07T04:10:34;20.03;;;11.30;;
3085;SDS011;52812;48.960;9.108;2022-12-07T04:13:00;15.40;;;9.97;;
3085;SDS011;52812;48.960;9.108;2022-12-07T04:15:25;15.83;;;11.17;;
3085;SDS011;52812;48.960;9.108;2022-12-07T04:17:51;20.57;;;12.27;;
3085;SDS011;52812;48.960;9.108;2022-12-07T04:20:17;18.40;;;12.10;;
3085;SDS011;52812;48.960;9.108;2022-12-07T04:22:43;19.87;;;11.77;;
3085;SDS011;52812;48.960;9.108;2022-12-07T04:25:08;17.60;;;11.97;;
3085;SDS011;52812;48.960;9.108;2022-12-07T04:27:34;19.87;;;12.57;;
3085;SDS011;52812;48.960;9.108;2022-12-07T04:30:00;18.20;;;11.40;;
3085;SDS011;52812;48.960;9.108;2022-12-07T04:32:25;20.10;;;12.80;;
3085;SDS011;52812;48.960;9.108;2022-12-07T04:34:51;15.47;;;10.70;;
3085;SDS011;52812;48.960;9.108;2022-12-07T04:37:17;17.27;;;11.17;;
3085;SDS011;52812;48.960;9.108;2022-12-07T04:39:42;18.00;;;10.83;;
3085;SDS011;52812;48.960;9.108;2022-12-07T04:42:10;21.43;;;13.20;;
3085;SDS011;52812;48.960;9.108;2022-12-07T04:44:37;20.67;;;13.33;;
3085;SDS011;52812;48.960;9.108;2022-12-07T04:47:03;20.43;;;11.37;;
3085;SDS011;52812;48.960;9.108;2022-12-07T04:49:29;16.97;;;11.50;;
3085;SDS011;52812;48.960;9.108;2022-12-07T04:51:54;19.00;;;11.33;;
3085;SDS011;52812;48.960;9.108;2022-12-07T04:54:33;16.33;;;10.30;;
3085;SDS011;52812;48.960;9.108;2022-12-07T04:56:59;16.57;;;9.97;;
3085;SDS011;52812;48.960;9.108;2022-12-07T04:59:24;14.80;;;10.00;;
3085;SDS011;52812;48.960;9.108;2022-12-07T05:01:50;15.07;;;9.70;;
3085;SDS011;52812;48.960;9.108;2022-12-07T05:04:15;19.17;;;10.33;;
3085;SDS011;52812;48.960;9.108;2022-12-07T05:06:42;18.93;;;10.10;;
3085;SDS011;52812;48.960;9.108;2022-12-07T05:09:08;16.70;;;9.90;;
3085;SDS011;52812;48.960;9.108;2022-12-07T05:11:34;16.20;;;10.73;;
3085;SDS011;52812;48.960;9.108;2022-12-07T05:14:03;18.97;;;10.37;;
3085;SDS011;52812;48.960;9.108;2022-12-07T05:16:30;14.73;;;10.00;;
3085;SDS011;52812;48.960;9.108;2022-12-07T05:18:56;19.87;;;10.53;;
3085;SDS011;52812;48.960;9.108;2022-12-07T05:21:21;18.13;;;10.20;;
3085;SDS011;52812;48.960;9.108;2022-12-07T05:23:47;15.77;;;9.60;;
3085;SDS011;52812;48.960;9.108;2022-12-07T05:26:13;17.10;;;10.70;;
3085;SDS011;52812;48.960;9.108;2022-12-07T05:28:38;18.70;;;10.77;;
3085;SDS011;52812;48.960;9.108;2022-12-07T05:31:04;16.13;;;10.37;;
3085;SDS011;52812;48.960;9.108;2022-12-07T05:33:30;16.67;;;10.80;;
3085;SDS011;52812;48.960;9.108;2022-12-07T05:35:55;15.27;;;9.93;;
3085;SDS011;52812;48.960;9.108;2022-12-07T05:38:21;15.40;;;9.90;;
3085;SDS011;52812;48.960;9.108;2022-12-07T05:40:46;16.10;;;9.63;;
3085;SDS011;52812;48.960;9.108;2022-12-07T05:43:13;16.37;;;10.27;;
3085;SDS011;52812;48.960;9.108;2022-12-07T05:45:39;17.30;;;10.27;;
3085;SDS011;52812;48.960;9.108;2022-12-07T05:48:04;19.33;;;9.50;;
3085;SDS011;52812;48.960;9.108;2022-12-07T05:50:30;17.90;;;10.50;;
3085;SDS011;52812;48.960;9.108;2022-12-07T05:52:55;16.03;;;10.10;;
3085;SDS011;52812;48.960;9.108;2022-12-07T05:55:24;17.60;;;10.40;;
3085;SDS011;52812;48.960;9.108;2022-12-07T05:57:52;16.40;;;10.60;;
3085;SDS011;52812;48.960;9.108;2022-12-07T06:00:36;15.77;;;9.67;;
3085;SDS011;52812;48.960;9.108;2022-12-07T06:03:02;16.10;;;8.90;;
3085;SDS011;52812;48.960;9.108;2022-12-07T06:05:27;14.40;;;9.10;;
3085;SDS011;52812;48.960;9.108;2022-12-07T06:07:53;18.87;;;9.67;;
3085;SDS011;52812;48.960;9.108;2022-12-07T06:10:18;15.30;;;9.40;;
3085;SDS011;52812;48.960;9.108;2022-12-07T06:12:44;17.00;;;9.27;;
3085;SDS011;52812;48.960;9.108;2022-12-07T06:15:11;16.53;;;9.17;;
3085;SDS011;52812;48.960;9.108;2022-12-07T06:17:38;16.20;;;9.67;;
3085;SDS011;52812;48.960;9.108;2022-12-07T06:20:04;14.37;;;9.63;;
3085;SDS011;52812;48.960;9.108;2022-12-07T06:22:30;16.53;;;10.50;;
3085;SDS011;52812;48.960;9.108;2022-12-07T06:24:55;14.67;;;9.43;;
3085;SDS011;52812;48.960;9.108;2022-12-07T06:27:21;19.10;;;10.70;;
3085;SDS011;52812;48.960;9.108;2022-12-07T06:29:47;20.70;;;11.97;;
3085;SDS011;52812;48.960;9.108;2022-12-07T06:32:12;26.97;;;11.87;;
3085;SDS011;52812;48.960;9.108;2022-12-07T06:34:38;20.40;;;11.17;;
3085;SDS011;52812;48.960;9.108;2022-12-07T06:37:03;16.40;;;10.67;;
3085;SDS011;52812;48.960;9.108;2022-12-07T06:39:29;19.87;;;10.50;;
3085;SDS011;52812;48.960;9.108;2022-12-07T06:41:56;16.63;;;10.23;;
3085;SDS011;52812;48.960;9.108;2022-12-07T06:44:22;21.43;;;11.30;;
3085;SDS011;52812;48.960;9.108;2022-12-07T06:46:49;17.75;;;11.07;;
3085;SDS011;52812;48.960;9.108;2022-12-07T06:49:15;18.87;;;10.97;;
3085;SDS011;52812;48.960;9.108;2022-12-07T06:51:41;21.17;;;10.63;;
3085;SDS011;52812;48.960;9.108;2022-12-07T06:54:08;17.43;;;10.40;;
3085;SDS011;52812;48.960;9.108;2022-12-07T06:56:34;16.70;;;10.07;;
3085;SDS011;52812;48.960;9.108;2022-12-07T06:59:00;19.70;;;11.30;;
3085;SDS011;52812;48.960;9.108;2022-12-07T07:01:25;25.07;;;17.33;;
3085;SDS011;52812;48.960;9.108;2022-12-07T07:03:51;20.47;;;12.47;;
3085;SDS011;52812;48.960;9.108;2022-12-07T07:06:17;20.53;;;13.00;;
3085;SDS011;52812;48.960;9.108;2022-12-07T07:08:43;17.90;;;11.57;;
3085;SDS011;52812;48.960;9.108;2022-12-07T07:11:09;22.97;;;13.67;;
3085;SDS011;52812;48.960;9.108;2022-12-07T07:13:34;22.23;;;14.53;;
3085;SDS011;52812;48.960;9.108;2022-12-07T07:16:01;19.43;;;11.37;;
3085;SDS011;52812;48.960;9.108;2022-12-07T07:18:27;21.20;;;15.23;;
3085;SDS011;52812;48.960;9.108;2022-12-07T07:20:53;16.00;;;10.23;;
3085;SDS011;52812;48.960;9.108;2022-12-07T07:23:19;18.53;;;11.67;;
3085;SDS011;52812;48.960;9.108;2022-12-07T07:25:46;14.20;;;8.93;;
3085;SDS011;52812;48.960;9.108;2022-12-07T07:28:12;14.73;;;9.60;;
3085;SDS011;52812;48.960;9.108;2022-12-07T07:30:37;14.63;;;9.50;;
3085;SDS011;52812;48.960;9.108;2022-12-07T07:33:03;13.87;;;9.10;;
3085;SDS011;52812;48.960;9.108;2022-12-07T07:35:30;16.23;;;9.33;;
3085;SDS011;52812;48.960;9.108;2022-12-07T07:37:56;17.23;;;10.50;;
3085;SDS011;52812;48.960;9.108;2022-12-07T07:40:22;16.53;;;9.80;;
3085;SDS011;52812;48.960;9.108;2022-12-07T07:42:49;14.87;;;9.00;;
3085;SDS011;52812;48.960;9.108;2022-12-07T07:45:16;15.03;;;10.10;;
3085;SDS011;52812;48.960;9.108;2022-12-07T07:47:43;15.30;;;9.53;;
3085;SDS011;52812;48.960;9.108;2022-12-07T07:50:09;19.90;;;10.30;;
3085;SDS011;52812;48.960;9.108;2022-12-07T07:52:34;17.23;;;10.40;;
3085;SDS011;52812;48.960;9.108;2022-12-07T07:55:00;16.50;;;9.30;;
3085;SDS011;52812;48.960;9.108;2022-12-07T07:57:26;31.33;;;10.30;;
3085;SDS011;52812;48.960;9.108;2022-12-07T07:59:52;16.37;;;9.60;;
3085;SDS011;52812;48.960;9.108;2022-12-07T08:02:18;18.00;;;9.80;;
3085;SDS011;52812;48.960;9.108;2022-12-07T08:04:45;18.10;;;10.27;;
3085;SDS011;52812;48.960;9.108;2022-12-07T08:07:13;17.40;;;10.27;;
3085;SDS011;52812;48.960;9.108;2022-12-07T08:09:39;16.77;;;9.83;;
3085;SDS011;52812;48.960;9.108;2022-12-07T08:12:05;17.53;;;10.07;;
3085;SDS011;52812;48.960;9.108;2022-12-07T08:14:32;16.37;;;10.27;;
3085;SDS011;52812;48.960;9.108;2022-12-07T08:16:59;44.00;;;22.77;;
3085;SDS011;52812;48.960;9.108;2022-12-07T08:19:25;41.40;;;21.13;;
3085;SDS011;52812;48.960;9.108;2022-12-07T08:21:50;33.53;;;18.97;;
3085;SDS011;52812;48.960;9.108;2022-12-07T08:24:16;24.17;;;14.83;;
3085;SDS011;52812;48.960;9.108;2022-12-07T08:26:42;24.13;;;14.77;;
3085;SDS011;52812;48.960;9.108;2022-12-07T08:29:07;18.37;;;11.60;;
3085;SDS011;52812;48.960;9.108;2022-12-07T08:31:33;17.40;;;11.30;;
3085;SDS011;52812;48.960;9.108;2022-12-07T08:33:59;20.73;;;11.93;;
3085;SDS011;52812;48.960;9.108;2022-12-07T08:36:25;18.90;;;10.83;;
3085;SDS011;52812;48.960;9.108;2022-12-07T08:38:51;17.43;;;10.90;;
3085;SDS011;52812;48.960;9.108;2022-12-07T08:41:16;15.23;;;9.63;;
3085;SDS011;52812;48.960;9.108;2022-12-07T08:43:42;12.53;;;9.00;;
3085;SDS011;52812;48.960;9.108;2022-12-07T08:46:21;19.93;;;12.13;;
3085;SDS011;52812;48.960;9.108;2022-12-07T08:51:37;15.83;;;10.23;;
3085;SDS011;52812;48.960;9.108;2022-12-07T08:54:04;17.40;;;11.00;;
3085;SDS011;52812;48.960;9.108;2022-12-07T08:56:34;18.83;;;11.73;;
3085;SDS011;52812;48.960;9.108;2022-12-07T08:58:59;20.87;;;11.90;;
3085;SDS011;52812;48.960;9.108;2022-12-07T09:01:25;18.33;;;10.63;;
3085;SDS011;52812;48.960;9.108;2022-12-07T09:03:52;19.77;;;10.73;;
3085;SDS011;52812;48.960;9.108;2022-12-07T09:06:17;17.80;;;10.20;;
3085;SDS011;52812;48.960;9.108;2022-12-07T09:08:45;14.90;;;9.07;;
3085;SDS011;52812;48.960;9.108;2022-12-07T09:11:14;15.53;;;8.60;;
3085;SDS011;52812;48.960;9.108;2022-12-07T09:13:40;13.07;;;7.77;;
3085;SDS011;52812;48.960;9.108;2022-12-07T09:16:08;12.53;;;8.30;;
3085;SDS011;52812;48.960;9.108;2022-12-07T09:18:34;11.53;;;7.70;;
3085;SDS011;52812;48.960;9.108;2022-12-07T09:20:59;11.43;;;7.60;;
3085;SDS011;52812;48.960;9.108;2022-12-07T09:23:25;11.97;;;7.30;;
3085;SDS011;52812;48.960;9.108;2022-12-07T09:25:51;12.20;;;7.73;;
3085;SDS011;52812;48.960;9.108;2022-12-07T09:28:16;12.80;;;8.10;;
3085;SDS011;52812;48.960;9.108;2022-12-07T09:30:46;12.20;;;8.00;;
3085;SDS011;52812;48.960;9.108;2022-12-07T09:33:12;14.00;;;8.97;;
3085;SDS011;52812;48.960;9.108;2022-12-07T09:35:38;11.80;;;7.13;;
3085;SDS011;52812;48.960;9.108;2022-12-07T09:38:09;10.20;;;6.57;;
3085;SDS011;52812;48.960;9.108;2022-12-07T09:40:35;12.77;;;7.03;;
3085;SDS011;52812;48.960;9.108;2022-12-07T09:43:00;12.33;;;6.40;;
3085;SDS011;52812;48.960;9.108;2022-12-07T09:45:31;10.67;;;6.83;;
3085;SDS011;52812;48.960;9.108;2022-12-07T09:48:00;8.67;;;6.73;;
3085;SDS011;52812;48.960;9.108;2022-12-07T09:50:28;7.93;;;5.80;;
3085;SDS011;52812;48.960;9.108;2022-12-07T09:52:58;8.90;;;6.20;;
3085;SDS011;52812;48.960;9.108;2022-12-07T09:55:38;8.33;;;4.63;;
3085;SDS011;52812;48.960;9.108;2022-12-07T09:58:05;8.70;;;5.20;;
3085;SDS011;52812;48.960;9.108;2022-12-07T10:00:31;8.23;;;4.90;;
3085;SDS011;52812;48.960;9.108;2022-12-07T10:02:58;8.43;;;4.83;;
3085;SDS011;52812;48.960;9.108;2022-12-07T10:05:26;9.00;;;5.67;;
3085;SDS011;52812;48.960;9.108;2022-12-07T10:08:03;8.67;;;5.40;;
3085;SDS011;52812;48.960;9.108;2022-12-07T10:10:31;9.10;;;5.50;;
3085;SDS011;52812;48.960;9.108;2022-12-07T10:13:02;5.90;;;4.10;;
3085;SDS011;52812;48.960;9.108;2022-12-07T10:15:52;8.03;;;5.77;;
3085;SDS011;52812;48.960;9.108;2022-12-07T10:18:28;7.87;;;4.97;;
3085;SDS011;52812;48.960;9.108;2022-12-07T10:21:11;9.47;;;5.00;;
3085;SDS011;52812;48.960;9.108;2022-12-07T10:26:40;7.00;;;5.00;;
3085;SDS011;52812;48.960;9.108;2022-12-07T10:29:17;12.93;;;5.63;;
3085;SDS011;52812;48.960;9.108;2022-12-07T10:31:57;9.10;;;5.87;;
3085;SDS011;52812;48.960;9.108;2022-12-07T10:37:14;8.40;;;5.60;;
3085;SDS011;52812;48.960;9.108;2022-12-07T10:39:55;9.10;;;6.20;;
3085;SDS011;52812;48.960;9.108;2022-12-07T10:48:03;12.80;;;8.20;;
3085;SDS011;52812;48.960;9.108;2022-12-07T10:56:17;13.00;;;7.13;;
3085;SDS011;52812;48.960;9.108;2022-12-07T11:04:19;13.60;;;7.80;;
3085;SDS011;52812;48.960;9.108;2022-12-07T11:07:01;11.97;;;7.50;;
3085;SDS011;52812;48.960;9.108;2022-12-07T11:09:47;13.97;;;7.43;;
3085;SDS011;52812;48.960;9.108;2022-12-07T11:12:47;11.20;;;6.80;;
3085;SDS011;52812;48.960;9.108;2022-12-07T11:15:46;12.67;;;6.93;;
3085;SDS011;52812;48.960;9.108;2022-12-07T11:21:07;11.90;;;7.30;;
3085;SDS011;52812;48.960;9.108;2022-12-07T11:26:34;13.40;;;9.07;;
3085;SDS011;52812;48.960;9.108;2022-12-07T11:32:04;11.23;;;7.47;;
3085;SDS011;52812;48.960;9.108;2022-12-07T11:37:34;11.40;;;6.90;;
3085;SDS011;52812;48.960;9.108;2022-12-07T11:40:03;11.53;;;7.63;;
3085;SDS011;52812;48.960;9.108;2022-12-07T11:42:38;13.57;;;7.70;;
3085;SDS011;52812;48.960;9.108;2022-12-07T11:45:13;12.30;;;7.27;;
3085;SDS011;52812;48.960;9.108;2022-12-07T11:47:48;14.00;;;7.50;;
3085;SDS011;52812;48.960;9.108;2022-12-07T11:58:21;14.97;;;9.60;;
3085;SDS011;52812;48.960;9.108;2022-12-07T12:00:49;15.53;;;9.37;;
3085;SDS011;52812;48.960;9.108;2022-12-07T12:03:19;14.47;;;9.30;;
3085;SDS011;52812;48.960;9.108;2022-12-07T12:05:55;14.87;;;8.30;;
3085;SDS011;52812;48.960;9.108;2022-12-07T12:08:31;12.63;;;7.53;;
3085;SDS011;52812;48.960;9.108;2022-12-07T12:16:48;12.30;;;8.20;;
3085;SDS011;52812;48.960;9.108;2022-12-07T12:19:45;13.43;;;8.30;;
3085;SDS011;52812;48.960;9.108;2022-12-07T12:22:52;13.00;;;8.50;;
3085;SDS011;52812;48.960;9.108;2022-12-07T12:25:29;15.37;;;10.10;;
3085;SDS011;52812;48.960;9.108;2022-12-07T12:28:02;15.13;;;9.83;;
3085;SDS011;52812;48.960;9.108;2022-12-07T12:30:36;14.23;;;8.03;;
3085;SDS011;52812;48.960;9.108;2022-12-07T12:33:16;13.60;;;9.07;;
3085;SDS011;52812;48.960;9.108;2022-12-07T12:54:24;12.90;;;8.07;;
3085;SDS011;52812;48.960;9.108;2022-12-07T13:02:28;13.03;;;8.43;;
3085;SDS011;52812;48.960;9.108;2022-12-07T13:12:58;17.20;;;10.70;;
3085;SDS011;52812;48.960;9.108;2022-12-07T13:15:34;14.73;;;9.33;;
3085;SDS011;52812;48.960;9.108;2022-12-07T13:20:56;16.43;;;11.10;;
3085;SDS011;52812;48.960;9.108;2022-12-07T13:23:38;16.70;;;10.00;;
3085;SDS011;52812;48.960;9.108;2022-12-07T13:28:49;18.00;;;9.80;;
3085;SDS011;52812;48.960;9.108;2022-12-07T13:32:01;16.57;;;10.23;;
3085;SDS011;52812;48.960;9.108;2022-12-07T13:35:08;16.97;;;10.40;;
3085;SDS011;52812;48.960;9.108;2022-12-07T13:37:09;17.80;;;10.23;;
3085;SDS011;52812;48.960;9.108;2022-12-07T13:39:51;19.57;;;12.53;;
3085;SDS011;52812;48.960;9.108;2022-12-07T13:42:25;16.13;;;9.90;;
3085;SDS011;52812;48.960;9.108;2022-12-07T13:44:53;17.77;;;10.80;;
3085;SDS011;52812;48.960;9.108;2022-12-07T13:47:33;20.10;;;11.50;;
3085;SDS011;52812;48.960;9.108;2022-12-07T13:50:38;35.60;;;19.30;;
3085;SDS011;52812;48.960;9.108;2022-12-07T13:52:58;30.27;;;19.70;;
3085;SDS011;52812;48.960;9.108;2022-12-07T13:55:24;26.73;;;15.30;;
3085;SDS011;52812;48.960;9.108;2022-12-07T13:57:52;19.90;;;11.40;;
3085;SDS011;52812;48.960;9.108;2022-12-07T14:00:23;18.47;;;10.70;;
3085;SDS011;52812;48.960;9.108;2022-12-07T14:02:57;21.63;;;12.70;;
3085;SDS011;52812;48.960;9.108;2022-12-07T14:05:28;20.47;;;11.47;;
3085;SDS011;52812;48.960;9.108;2022-12-07T14:12:55;24.77;;;15.57;;
3085;SDS011;52812;48.960;9.108;2022-12-07T14:15:23;20.90;;;12.10;;
3085;SDS011;52812;48.960;9.108;2022-12-07T14:17:52;20.97;;;14.07;;
3085;SDS011;52812;48.960;9.108;2022-12-07T14:22:57;20.03;;;11.60;;
3085;SDS011;52812;48.960;9.108;2022-12-07T14:25:24;18.27;;;11.17;;
3085;SDS011;52812;48.960;9.108;2022-12-07T14:27:58;19.97;;;11.07;;
3085;SDS011;52812;48.960;9.108;2022-12-07T14:30:29;22.10;;;12.17;;
3085;SDS011;52812;48.960;9.108;2022-12-07T14:33:00;18.90;;;11.73;;
3085;SDS011;52812;48.960;9.108;2022-12-07T14:35:28;17.10;;;9.50;;
3085;SDS011;52812;48.960;9.108;2022-12-07T14:37:55;18.27;;;10.60;;
3085;SDS011;52812;48.960;9.108;2022-12-07T14:40:21;22.63;;;12.27;;
3085;SDS011;52812;48.960;9.108;2022-12-07T14:42:54;20.70;;;11.57;;
3085;SDS011;52812;48.960;9.108;2022-12-07T14:45:23;16.90;;;10.13;;
3085;SDS011;52812;48.960;9.108;2022-12-07T14:47:49;19.83;;;11.77;;
3085;SDS011;52812;48.960;9.108;2022-12-07T14:50:16;20.13;;;11.93;;
3085;SDS011;52812;48.960;9.108;2022-12-07T14:52:52;18.50;;;11.63;;
3085;SDS011;52812;48.960;9.108;2022-12-07T14:55:27;23.00;;;12.90;;
3085;SDS011;52812;48.960;9.108;2022-12-07T14:57:55;24.37;;;13.03;;
3085;SDS011;52812;48.960;9.108;2022-12-07T15:00:22;25.00;;;13.07;;
3085;SDS011;52812;48.960;9.108;2022-12-07T15:02:49;22.70;;;13.77;;
3085;SDS011;52812;48.960;9.108;2022-12-07T15:05:16;25.33;;;13.87;;
3085;SDS011;52812;48.960;9.108;2022-12-07T15:07:43;24.17;;;13.70;;
3085;SDS011;52812;48.960;9.108;2022-12-07T15:10:23;22.93;;;13.40;;
3085;SDS011;52812;48.960;9.108;2022-12-07T15:12:54;21.80;;;13.50;;
3085;SDS011;52812;48.960;9.108;2022-12-07T15:15:40;27.10;;;14.87;;
3085;SDS011;52812;48.960;9.108;2022-12-07T15:18:06;22.17;;;13.93;;
3085;SDS011;52812;48.960;9.108;2022-12-07T15:20:32;23.37;;;13.40;;
3085;SDS011;52812;48.960;9.108;2022-12-07T15:22:57;22.97;;;12.60;;
3085;SDS011;52812;48.960;9.108;2022-12-07T15:25:23;21.83;;;12.83;;
3085;SDS011;52812;48.960;9.108;2022-12-07T15:27:49;22.50;;;12.17;;
3085;SDS011;52812;48.960;9.108;2022-12-07T15:30:15;22.60;;;13.00;;
3085;SDS011;52812;48.960;9.108;2022-12-07T15:32:40;23.40;;;12.40;;
3085;SDS011;52812;48.960;9.108;2022-12-07T15:35:06;20.77;;;12.73;;
3085;SDS011;52812;48.960;9.108;2022-12-07T15:37:32;21.97;;;13.10;;
3085;SDS011;52812;48.960;9.108;2022-12-07T15:39:57;22.20;;;12.07;;
3085;SDS011;52812;48.960;9.108;2022-12-07T15:42:23;26.53;;;14.10;;
3085;SDS011;52812;48.960;9.108;2022-12-07T15:44:48;30.83;;;14.20;;
3085;SDS011;52812;48.960;9.108;2022-12-07T15:47:30;26.00;;;13.50;;
3085;SDS011;52812;48.960;9.108;2022-12-07T15:49:56;28.20;;;14.50;;
3085;SDS011;52812;48.960;9.108;2022-12-07T15:52:22;24.43;;;14.87;;
3085;SDS011;52812;48.960;9.108;2022-12-07T15:54:48;26.30;;;15.40;;
3085;SDS011;52812;48.960;9.108;2022-12-07T15:57:13;27.57;;;16.13;;
3085;SDS011;52812;48.960;9.108;2022-12-07T15:59:39;26.33;;;15.40;;
3085;SDS011;52812;48.960;9.108;2022-12-07T16:02:05;28.50;;;15.20;;
3085;SDS011;52812;48.960;9.108;2022-12-07T16:04:30;29.00;;;16.13;;
3085;SDS011;52812;48.960;9.108;2022-12-07T16:06:56;27.83;;;15.13;;
3085;SDS011;52812;48.960;9.108;2022-12-07T16:09:22;27.17;;;15.17;;
3085;SDS011;52812;48.960;9.108;2022-12-07T16:11:48;24.97;;;14.83;;
3085;SDS011;52812;48.960;9.108;2022-12-07T16:14:15;23.63;;;14.13;;
3085;SDS011;52812;48.960;9.108;2022-12-07T16:16:41;25.53;;;15.07;;
3085;SDS011;52812;48.960;9.108;2022-12-07T16:19:06;21.93;;;14.20;;
3085;SDS011;52812;48.960;9.108;2022-12-07T16:21:33;24.30;;;13.93;;
3085;SDS011;52812;48.960;9.108;2022-12-07T16:24:00;22.53;;;13.20;;
3085;SDS011;52812;48.960;9.108;2022-12-07T16:26:26;22.73;;;13.00;;
3085;SDS011;52812;48.960;9.108;2022-12-07T16:28:52;21.90;;;13.30;;
3085;SDS011;52812;48.960;9.108;2022-12-07T16:31:19;22.87;;;13.57;;
3085;SDS011;52812;48.960;9.108;2022-12-07T16:33:47;22.07;;;12.63;;
3085;SDS011;52812;48.960;9.108;2022-12-07T16:36:14;24.60;;;13.10;;
3085;SDS011;52812;48.960;9.108;2022-12-07T16:38:43;24.60;;;13.10;;
3085;SDS011;52812;48.960;9.108;2022-12-07T16:41:09;28.50;;;15.93;;
3085;SDS011;52812;48.960;9.108;2022-12-07T16:43:36;29.23;;;15.90;;
3085;SDS011;52812;48.960;9.108;2022-12-07T16:46:02;27.43;;;16.00;;
3085;SDS011;52812;48.960;9.108;2022-12-07T16:48:28;22.43;;;14.00;;
3085;SDS011;52812;48.960;9.108;2022-12-07T16:50:54;25.70;;;15.33;;
3085;SDS011;52812;48.960;9.108;2022-12-07T16:53:20;27.00;;;15.53;;
3085;SDS011;52812;48.960;9.108;2022-12-07T16:55:47;25.87;;;15.87;;
3085;SDS011;52812;48.960;9.108;2022-12-07T16:58:13;34.70;;;19.00;;